sensor_id;sensor_type;location;lat;lon;timestamp;temperature;humidity
7738;DHT22;29398;45.328;5.558;2023-04-24T00:00:39;12.70;99.90
7738;DHT22;29398;45.328;5.558;2023-04-24T00:01:41;12.70;99.90
7738;DHT22;29398;45.328;5.558;2023-04-24T00:02:44;12.70;99.90
7738;DHT22;29398;45.328;5.558;2023-04-24T00:03:47;12.70;99.90
7738;DHT22;29398;45.328;5.558;2023-04-24T00:04:48;12.70;99.90
7738;DHT22;29398;45.328;5.558;2023-04-24T00:05:50;12.60;99.90
7738;DHT22;29398;45.328;5.558;2023-04-24T00:06:52;12.60;99.90
7738;DHT22;29398;45.328;5.558;2023-04-24T00:07:57;12.60;99.90
7738;DHT22;29398;45.328;5.558;2023-04-24T00:09:00;12.60;99.90
7738;DHT22;29398;45.328;5.558;2023-04-24T00:10:02;12.60;99.90
7738;DHT22;29398;45.328;5.558;2023-04-24T00:11:04;12.60;99.90
7738;DHT22;29398;45.328;5.558;2023-04-24T00:12:06;12.60;99.90
7738;DHT22;29398;45.328;5.558;2023-04-24T00:13:10;12.50;99.90
7738;DHT22;29398;45.328;5.558;2023-04-24T00:14:12;12.50;99.90
7738;DHT22;29398;45.328;5.558;2023-04-24T00:15:13;12.50;99.90
7738;DHT22;29398;45.328;5.558;2023-04-24T00:16:15;12.60;99.90
7738;DHT22;29398;45.328;5.558;2023-04-24T00:17:16;12.60;99.90
7738;DHT22;29398;45.328;5.558;2023-04-24T00:18:20;12.60;99.90
7738;DHT22;29398;45.328;5.558;2023-04-24T00:19:21;12.60;99.90
7738;DHT22;29398;45.328;5.558;2023-04-24T00:20:23;12.60;99.90
7738;DHT22;29398;45.328;5.558;2023-04-24T00:21:25;14.70;99.90
7738;DHT22;29398;45.328;5.558;2023-04-24T00:22:28;12.60;99.90
7738;DHT22;29398;45.328;5.558;2023-04-24T00:23:29;12.50;99.90
7738;DHT22;29398;45.328;5.558;2023-04-24T00:24:32;12.50;99.90
7738;DHT22;29398;45.328;5.558;2023-04-24T00:25:33;12.50;99.90
7738;DHT22;29398;45.328;5.558;2023-04-24T00:26:35;12.50;99.90
7738;DHT22;29398;45.328;5.558;2023-04-24T00:27:36;12.40;99.90
7738;DHT22;29398;45.328;5.558;2023-04-24T00:28:39;12.40;99.90
7738;DHT22;29398;45.328;5.558;2023-04-24T00:29:40;12.40;99.90
7738;DHT22;29398;45.328;5.558;2023-04-24T00:30:42;12.40;99.90
7738;DHT22;29398;45.328;5.558;2023-04-24T00:31:43;12.40;99.90
7738;DHT22;29398;45.328;5.558;2023-04-24T00:32:46;12.40;99.90
7738;DHT22;29398;45.328;5.558;2023-04-24T00:33:47;12.50;99.90
7738;DHT22;29398;45.328;5.558;2023-04-24T00:34:49;12.50;99.90
7738;DHT22;29398;45.328;5.558;2023-04-24T00:35:50;12.50;99.90
7738;DHT22;29398;45.328;5.558;2023-04-24T00:36:52;12.50;99.90
7738;DHT22;29398;45.328;5.558;2023-04-24T00:37:53;12.60;99.90
7738;DHT22;29398;45.328;5.558;2023-04-24T00:38:56;12.60;99.90
7738;DHT22;29398;45.328;5.558;2023-04-24T00:39:59;12.60;99.90
7738;DHT22;29398;45.328;5.558;2023-04-24T00:41:01;12.70;99.90
7738;DHT22;29398;45.328;5.558;2023-04-24T00:42:02;12.70;99.90
7738;DHT22;29398;45.328;5.558;2023-04-24T00:43:07;12.70;99.90
7738;DHT22;29398;45.328;5.558;2023-04-24T00:44:09;12.80;99.90
7738;DHT22;29398;45.328;5.558;2023-04-24T00:45:12;12.80;99.90
7738;DHT22;29398;45.328;5.558;2023-04-24T00:46:13;12.80;99.90
7738;DHT22;29398;45.328;5.558;2023-04-24T00:47:16;12.80;99.90
7738;DHT22;29398;45.328;5.558;2023-04-24T00:48:17;12.70;99.90
7738;DHT22;29398;45.328;5.558;2023-04-24T00:49:19;12.70;99.90
7738;DHT22;29398;45.328;5.558;2023-04-24T00:50:21;12.60;99.90
7738;DHT22;29398;45.328;5.558;2023-04-24T00:51:23;12.60;99.90
7738;DHT22;29398;45.328;5.558;2023-04-24T00:52:25;12.60;99.90
7738;DHT22;29398;45.328;5.558;2023-04-24T00:53:29;12.70;99.90
7738;DHT22;29398;45.328;5.558;2023-04-24T00:54:30;12.60;99.90
7738;DHT22;29398;45.328;5.558;2023-04-24T00:55:33;12.60;99.90
7738;DHT22;29398;45.328;5.558;2023-04-24T00:56:35;12.60;99.90
7738;DHT22;29398;45.328;5.558;2023-04-24T00:57:38;12.70;99.90
7738;DHT22;29398;45.328;5.558;2023-04-24T00:58:39;12.70;99.90
7738;DHT22;29398;45.328;5.558;2023-04-24T00:59:42;12.70;99.90
7738;DHT22;29398;45.328;5.558;2023-04-24T01:00:44;12.80;99.90
7738;DHT22;29398;45.328;5.558;2023-04-24T01:01:47;12.80;99.90
7738;DHT22;29398;45.328;5.558;2023-04-24T01:02:48;12.80;99.90
7738;DHT22;29398;45.328;5.558;2023-04-24T01:03:52;12.80;99.90
7738;DHT22;29398;45.328;5.558;2023-04-24T01:04:54;12.70;99.90
7738;DHT22;29398;45.328;5.558;2023-04-24T01:05:56;12.70;99.90
7738;DHT22;29398;45.328;5.558;2023-04-24T01:06:57;12.60;99.90
7738;DHT22;29398;45.328;5.558;2023-04-24T01:08:01;12.60;99.90
7738;DHT22;29398;45.328;5.558;2023-04-24T01:09:02;12.60;99.90
7738;DHT22;29398;45.328;5.558;2023-04-24T01:10:05;12.50;99.90
7738;DHT22;29398;45.328;5.558;2023-04-24T01:11:08;12.60;99.90
7738;DHT22;29398;45.328;5.558;2023-04-24T01:12:10;12.50;99.90
7738;DHT22;29398;45.328;5.558;2023-04-24T01:13:12;12.50;99.90
7738;DHT22;29398;45.328;5.558;2023-04-24T01:14:14;12.60;99.90
7738;DHT22;29398;45.328;5.558;2023-04-24T01:15:15;12.60;99.90
7738;DHT22;29398;45.328;5.558;2023-04-24T01:16:17;12.60;99.90
7738;DHT22;29398;45.328;5.558;2023-04-24T01:17:21;12.60;99.90
7738;DHT22;29398;45.328;5.558;2023-04-24T01:18:23;12.60;99.90
7738;DHT22;29398;45.328;5.558;2023-04-24T01:19:25;12.60;99.90
7738;DHT22;29398;45.328;5.558;2023-04-24T01:20:27;12.60;99.90
7738;DHT22;29398;45.328;5.558;2023-04-24T01:21:30;12.60;99.90
7738;DHT22;29398;45.328;5.558;2023-04-24T01:22:34;12.60;99.90
7738;DHT22;29398;45.328;5.558;2023-04-24T01:23:35;12.70;99.90
7738;DHT22;29398;45.328;5.558;2023-04-24T01:24:37;12.70;99.90
7738;DHT22;29398;45.328;5.558;2023-04-24T01:25:39;12.70;99.90
7738;DHT22;29398;45.328;5.558;2023-04-24T01:26:41;12.60;99.90
7738;DHT22;29398;45.328;5.558;2023-04-24T01:27:42;12.50;99.90
7738;DHT22;29398;45.328;5.558;2023-04-24T01:28:46;12.50;99.90
7738;DHT22;29398;45.328;5.558;2023-04-24T01:29:47;12.50;99.90
7738;DHT22;29398;45.328;5.558;2023-04-24T01:30:50;12.50;99.90
7738;DHT22;29398;45.328;5.558;2023-04-24T01:31:51;12.40;99.90
7738;DHT22;29398;45.328;5.558;2023-04-24T01:32:54;12.40;99.90
7738;DHT22;29398;45.328;5.558;2023-04-24T01:33:56;12.40;99.90
7738;DHT22;29398;45.328;5.558;2023-04-24T01:36:00;12.50;99.90
7738;DHT22;29398;45.328;5.558;2023-04-24T01:37:02;12.50;99.90
7738;DHT22;29398;45.328;5.558;2023-04-24T01:38:05;12.50;99.90
7738;DHT22;29398;45.328;5.558;2023-04-24T01:39:07;12.50;99.90
7738;DHT22;29398;45.328;5.558;2023-04-24T01:40:09;12.50;99.90
7738;DHT22;29398;45.328;5.558;2023-04-24T01:41:11;12.50;99.90
7738;DHT22;29398;45.328;5.558;2023-04-24T01:42:13;12.50;99.90
7738;DHT22;29398;45.328;5.558;2023-04-24T01:43:15;12.50;99.90
7738;DHT22;29398;45.328;5.558;2023-04-24T01:44:16;12.50;99.90
7738;DHT22;29398;45.328;5.558;2023-04-24T01:45:19;12.50;99.90
7738;DHT22;29398;45.328;5.558;2023-04-24T01:46:20;12.50;99.90
7738;DHT22;29398;45.328;5.558;2023-04-24T01:47:23;12.40;99.90
7738;DHT22;29398;45.328;5.558;2023-04-24T01:48:25;12.40;99.90
7738;DHT22;29398;45.328;5.558;2023-04-24T01:49:27;12.30;99.90
7738;DHT22;29398;45.328;5.558;2023-04-24T01:50:28;12.30;99.90
7738;DHT22;29398;45.328;5.558;2023-04-24T01:51:31;12.40;99.90
7738;DHT22;29398;45.328;5.558;2023-04-24T01:52:32;12.40;99.90
7738;DHT22;29398;45.328;5.558;2023-04-24T01:53:37;12.40;99.90
7738;DHT22;29398;45.328;5.558;2023-04-24T01:54:38;12.40;99.90
7738;DHT22;29398;45.328;5.558;2023-04-24T01:55:40;12.50;99.90
7738;DHT22;29398;45.328;5.558;2023-04-24T01:56:42;12.50;99.90
7738;DHT22;29398;45.328;5.558;2023-04-24T01:57:45;12.50;99.90
7738;DHT22;29398;45.328;5.558;2023-04-24T01:58:46;12.50;99.90
7738;DHT22;29398;45.328;5.558;2023-04-24T01:59:49;12.60;99.90
7738;DHT22;29398;45.328;5.558;2023-04-24T02:00:50;12.60;99.90
7738;DHT22;29398;45.328;5.558;2023-04-24T02:01:52;12.60;99.90
7738;DHT22;29398;45.328;5.558;2023-04-24T02:02:53;12.60;99.90
7738;DHT22;29398;45.328;5.558;2023-04-24T02:03:55;12.60;99.90
7738;DHT22;29398;45.328;5.558;2023-04-24T02:04:57;12.70;99.90
7738;DHT22;29398;45.328;5.558;2023-04-24T02:05:59;12.70;99.90
7738;DHT22;29398;45.328;5.558;2023-04-24T02:07:00;12.70;99.90
7738;DHT22;29398;45.328;5.558;2023-04-24T02:08:02;12.60;99.90
7738;DHT22;29398;45.328;5.558;2023-04-24T02:09:05;12.60;99.90
7738;DHT22;29398;45.328;5.558;2023-04-24T02:10:08;12.60;99.90
7738;DHT22;29398;45.328;5.558;2023-04-24T02:11:09;12.60;99.90
7738;DHT22;29398;45.328;5.558;2023-04-24T02:12:11;12.60;99.90
7738;DHT22;29398;45.328;5.558;2023-04-24T02:13:12;12.60;99.90
7738;DHT22;29398;45.328;5.558;2023-04-24T02:14:14;12.50;99.90
7738;DHT22;29398;45.328;5.558;2023-04-24T02:15:16;12.60;99.90
7738;DHT22;29398;45.328;5.558;2023-04-24T02:16:18;12.60;99.90
7738;DHT22;29398;45.328;5.558;2023-04-24T02:17:20;12.50;99.90
7738;DHT22;29398;45.328;5.558;2023-04-24T02:18:22;12.50;99.90
7738;DHT22;29398;45.328;5.558;2023-04-24T02:19:23;12.50;99.90
7738;DHT22;29398;45.328;5.558;2023-04-24T02:20:25;12.50;99.90
7738;DHT22;29398;45.328;5.558;2023-04-24T02:21:27;12.50;99.90
7738;DHT22;29398;45.328;5.558;2023-04-24T02:22:29;12.50;99.90
7738;DHT22;29398;45.328;5.558;2023-04-24T02:23:31;12.50;99.90
7738;DHT22;29398;45.328;5.558;2023-04-24T02:24:34;12.60;99.90
7738;DHT22;29398;45.328;5.558;2023-04-24T02:25:35;12.60;99.90
7738;DHT22;29398;45.328;5.558;2023-04-24T02:26:37;12.60;99.90
7738;DHT22;29398;45.328;5.558;2023-04-24T02:27:38;12.60;99.90
7738;DHT22;29398;45.328;5.558;2023-04-24T02:28:40;12.60;99.90
7738;DHT22;29398;45.328;5.558;2023-04-24T02:29:42;12.60;99.90
7738;DHT22;29398;45.328;5.558;2023-04-24T02:30:44;12.60;99.90
7738;DHT22;29398;45.328;5.558;2023-04-24T02:31:45;12.60;99.90
7738;DHT22;29398;45.328;5.558;2023-04-24T02:32:49;12.50;99.90
7738;DHT22;29398;45.328;5.558;2023-04-24T02:33:50;12.50;99.90
7738;DHT22;29398;45.328;5.558;2023-04-24T02:34:52;12.40;99.90
7738;DHT22;29398;45.328;5.558;2023-04-24T02:35:53;12.50;99.90
7738;DHT22;29398;45.328;5.558;2023-04-24T02:36:55;12.40;99.90
7738;DHT22;29398;45.328;5.558;2023-04-24T02:37:57;12.40;99.90
7738;DHT22;29398;45.328;5.558;2023-04-24T02:38:59;12.40;99.90
7738;DHT22;29398;45.328;5.558;2023-04-24T02:40:01;12.40;99.90
7738;DHT22;29398;45.328;5.558;2023-04-24T02:41:04;12.40;99.90
7738;DHT22;29398;45.328;5.558;2023-04-24T02:42:06;12.50;99.90
7738;DHT22;29398;45.328;5.558;2023-04-24T02:43:09;12.50;99.90
7738;DHT22;29398;45.328;5.558;2023-04-24T02:44:11;12.40;99.90
7738;DHT22;29398;45.328;5.558;2023-04-24T02:45:14;12.50;99.90
7738;DHT22;29398;45.328;5.558;2023-04-24T02:46:15;12.50;99.90
7738;DHT22;29398;45.328;5.558;2023-04-24T02:47:19;12.50;99.90
7738;DHT22;29398;45.328;5.558;2023-04-24T02:48:20;12.50;99.90
7738;DHT22;29398;45.328;5.558;2023-04-24T02:49:22;12.50;99.90
7738;DHT22;29398;45.328;5.558;2023-04-24T02:50:23;12.50;99.90
7738;DHT22;29398;45.328;5.558;2023-04-24T02:51:25;12.50;99.90
7738;DHT22;29398;45.328;5.558;2023-04-24T02:52:27;12.50;99.90
7738;DHT22;29398;45.328;5.558;2023-04-24T02:53:29;12.50;99.90
7738;DHT22;29398;45.328;5.558;2023-04-24T02:54:31;12.50;99.90
7738;DHT22;29398;45.328;5.558;2023-04-24T02:55:34;12.50;99.90
7738;DHT22;29398;45.328;5.558;2023-04-24T02:56:36;12.50;99.90
7738;DHT22;29398;45.328;5.558;2023-04-24T02:57:40;12.60;99.90
7738;DHT22;29398;45.328;5.558;2023-04-24T02:58:42;12.60;99.90
7738;DHT22;29398;45.328;5.558;2023-04-24T02:59:44;12.60;99.90
7738;DHT22;29398;45.328;5.558;2023-04-24T03:00:45;12.60;99.90
7738;DHT22;29398;45.328;5.558;2023-04-24T03:01:47;12.70;99.90
7738;DHT22;29398;45.328;5.558;2023-04-24T03:02:48;12.70;99.90
7738;DHT22;29398;45.328;5.558;2023-04-24T03:03:50;12.70;99.90
7738;DHT22;29398;45.328;5.558;2023-04-24T03:04:51;12.70;99.90
7738;DHT22;29398;45.328;5.558;2023-04-24T03:05:55;12.70;99.90
7738;DHT22;29398;45.328;5.558;2023-04-24T03:06:56;12.70;99.90
7738;DHT22;29398;45.328;5.558;2023-04-24T03:07:58;12.70;99.90
7738;DHT22;29398;45.328;5.558;2023-04-24T03:08:59;12.70;99.90
7738;DHT22;29398;45.328;5.558;2023-04-24T03:10:01;12.70;99.90
7738;DHT22;29398;45.328;5.558;2023-04-24T03:11:04;12.70;99.90
7738;DHT22;29398;45.328;5.558;2023-04-24T03:12:06;12.70;99.90
7738;DHT22;29398;45.328;5.558;2023-04-24T03:13:07;12.70;99.90
7738;DHT22;29398;45.328;5.558;2023-04-24T03:14:09;12.70;99.90
7738;DHT22;29398;45.328;5.558;2023-04-24T03:15:12;12.70;99.90
7738;DHT22;29398;45.328;5.558;2023-04-24T03:16:14;12.60;99.90
7738;DHT22;29398;45.328;5.558;2023-04-24T03:17:15;12.50;99.90
7738;DHT22;29398;45.328;5.558;2023-04-24T03:18:18;12.50;99.90
7738;DHT22;29398;45.328;5.558;2023-04-24T03:19:19;12.50;99.90
7738;DHT22;29398;45.328;5.558;2023-04-24T03:20:37;12.50;99.90
7738;DHT22;29398;45.328;5.558;2023-04-24T03:21:38;12.50;99.90
7738;DHT22;29398;45.328;5.558;2023-04-24T03:22:42;12.50;99.90
7738;DHT22;29398;45.328;5.558;2023-04-24T03:23:43;12.50;99.90
7738;DHT22;29398;45.328;5.558;2023-04-24T03:24:45;12.50;99.90
7738;DHT22;29398;45.328;5.558;2023-04-24T03:25:49;12.50;99.90
7738;DHT22;29398;45.328;5.558;2023-04-24T03:26:55;12.50;99.90
7738;DHT22;29398;45.328;5.558;2023-04-24T03:28:17;12.50;99.90
7738;DHT22;29398;45.328;5.558;2023-04-24T03:29:27;12.50;99.90
7738;DHT22;29398;45.328;5.558;2023-04-24T03:30:28;12.40;99.90
7738;DHT22;29398;45.328;5.558;2023-04-24T03:31:33;12.40;99.90
7738;DHT22;29398;45.328;5.558;2023-04-24T03:32:35;12.30;99.90
7738;DHT22;29398;45.328;5.558;2023-04-24T03:33:37;12.30;99.90
7738;DHT22;29398;45.328;5.558;2023-04-24T03:34:38;12.20;99.90
7738;DHT22;29398;45.328;5.558;2023-04-24T03:35:42;12.30;99.90
7738;DHT22;29398;45.328;5.558;2023-04-24T03:36:46;14.20;99.90
7738;DHT22;29398;45.328;5.558;2023-04-24T03:37:49;12.30;99.90
7738;DHT22;29398;45.328;5.558;2023-04-24T03:39:22;12.30;99.90
7738;DHT22;29398;45.328;5.558;2023-04-24T03:40:29;12.30;99.90
7738;DHT22;29398;45.328;5.558;2023-04-24T03:41:31;12.40;99.90
7738;DHT22;29398;45.328;5.558;2023-04-24T03:42:47;12.40;99.90
7738;DHT22;29398;45.328;5.558;2023-04-24T03:43:48;12.50;99.90
7738;DHT22;29398;45.328;5.558;2023-04-24T03:44:50;12.40;99.90
7738;DHT22;29398;45.328;5.558;2023-04-24T03:45:57;12.40;99.90
7738;DHT22;29398;45.328;5.558;2023-04-24T03:47:00;12.40;99.90
7738;DHT22;29398;45.328;5.558;2023-04-24T03:48:01;12.30;99.90
7738;DHT22;29398;45.328;5.558;2023-04-24T03:49:04;12.30;99.90
7738;DHT22;29398;45.328;5.558;2023-04-24T03:50:10;12.40;99.90
7738;DHT22;29398;45.328;5.558;2023-04-24T03:51:12;12.30;99.90
7738;DHT22;29398;45.328;5.558;2023-04-24T03:52:17;12.30;99.90
7738;DHT22;29398;45.328;5.558;2023-04-24T03:53:20;12.30;99.90
7738;DHT22;29398;45.328;5.558;2023-04-24T03:54:21;12.30;99.90
7738;DHT22;29398;45.328;5.558;2023-04-24T03:55:25;12.30;99.90
7738;DHT22;29398;45.328;5.558;2023-04-24T03:56:27;12.30;99.90
7738;DHT22;29398;45.328;5.558;2023-04-24T03:57:29;12.30;99.90
7738;DHT22;29398;45.328;5.558;2023-04-24T03:58:42;12.30;99.90
7738;DHT22;29398;45.328;5.558;2023-04-24T03:59:45;12.30;99.90
7738;DHT22;29398;45.328;5.558;2023-04-24T04:00:51;12.30;99.90
7738;DHT22;29398;45.328;5.558;2023-04-24T04:02:13;12.30;99.90
7738;DHT22;29398;45.328;5.558;2023-04-24T04:03:16;12.30;99.90
7738;DHT22;29398;45.328;5.558;2023-04-24T04:04:17;12.30;99.90
7738;DHT22;29398;45.328;5.558;2023-04-24T04:05:20;12.20;99.90
7738;DHT22;29398;45.328;5.558;2023-04-24T04:06:21;12.20;99.90
7738;DHT22;29398;45.328;5.558;2023-04-24T04:07:25;12.10;99.90
7738;DHT22;29398;45.328;5.558;2023-04-24T04:08:27;12.20;99.90
7738;DHT22;29398;45.328;5.558;2023-04-24T04:09:29;12.10;99.90
7738;DHT22;29398;45.328;5.558;2023-04-24T04:10:30;12.20;99.90
7738;DHT22;29398;45.328;5.558;2023-04-24T04:11:32;12.20;99.90
7738;DHT22;29398;45.328;5.558;2023-04-24T04:12:33;12.20;99.90
7738;DHT22;29398;45.328;5.558;2023-04-24T04:13:35;12.30;99.90
7738;DHT22;29398;45.328;5.558;2023-04-24T04:14:38;12.30;99.90
7738;DHT22;29398;45.328;5.558;2023-04-24T04:15:40;12.30;99.90
7738;DHT22;29398;45.328;5.558;2023-04-24T04:16:42;12.30;99.90
7738;DHT22;29398;45.328;5.558;2023-04-24T04:17:45;12.20;99.90
7738;DHT22;29398;45.328;5.558;2023-04-24T04:18:46;12.20;99.90
7738;DHT22;29398;45.328;5.558;2023-04-24T04:19:49;12.20;99.90
7738;DHT22;29398;45.328;5.558;2023-04-24T04:20:51;12.20;99.90
7738;DHT22;29398;45.328;5.558;2023-04-24T04:21:53;12.20;99.90
7738;DHT22;29398;45.328;5.558;2023-04-24T04:23:07;12.20;99.90
7738;DHT22;29398;45.328;5.558;2023-04-24T04:24:29;12.20;99.90
7738;DHT22;29398;45.328;5.558;2023-04-24T04:25:34;12.30;99.90
7738;DHT22;29398;45.328;5.558;2023-04-24T04:26:36;12.30;99.90
7738;DHT22;29398;45.328;5.558;2023-04-24T04:27:41;12.30;99.90
7738;DHT22;29398;45.328;5.558;2023-04-24T04:28:45;12.20;99.90
7738;DHT22;29398;45.328;5.558;2023-04-24T04:29:49;12.20;99.90
7738;DHT22;29398;45.328;5.558;2023-04-24T04:30:51;12.20;99.90
7738;DHT22;29398;45.328;5.558;2023-04-24T04:31:55;12.20;99.90
7738;DHT22;29398;45.328;5.558;2023-04-24T04:32:56;12.20;99.90
7738;DHT22;29398;45.328;5.558;2023-04-24T04:33:58;12.20;99.90
7738;DHT22;29398;45.328;5.558;2023-04-24T04:34:59;12.20;99.90
7738;DHT22;29398;45.328;5.558;2023-04-24T04:36:05;12.20;99.90
7738;DHT22;29398;45.328;5.558;2023-04-24T04:37:08;12.30;99.90
7738;DHT22;29398;45.328;5.558;2023-04-24T04:38:21;12.30;99.90
7738;DHT22;29398;45.328;5.558;2023-04-24T04:39:31;12.30;99.90
7738;DHT22;29398;45.328;5.558;2023-04-24T04:40:36;12.30;99.90
7738;DHT22;29398;45.328;5.558;2023-04-24T04:41:39;12.30;99.90
7738;DHT22;29398;45.328;5.558;2023-04-24T04:42:44;12.30;99.90
7738;DHT22;29398;45.328;5.558;2023-04-24T04:43:47;12.40;99.90
7738;DHT22;29398;45.328;5.558;2023-04-24T04:44:51;12.40;99.90
7738;DHT22;29398;45.328;5.558;2023-04-24T04:45:58;12.40;99.90
7738;DHT22;29398;45.328;5.558;2023-04-24T04:47:21;12.40;99.90
7738;DHT22;29398;45.328;5.558;2023-04-24T04:48:22;12.40;99.90
7738;DHT22;29398;45.328;5.558;2023-04-24T04:49:25;12.40;99.90
7738;DHT22;29398;45.328;5.558;2023-04-24T04:50:29;12.30;99.90
7738;DHT22;29398;45.328;5.558;2023-04-24T04:51:37;12.30;99.90
7738;DHT22;29398;45.328;5.558;2023-04-24T04:52:39;12.30;99.90
7738;DHT22;29398;45.328;5.558;2023-04-24T04:53:52;12.30;99.90
7738;DHT22;29398;45.328;5.558;2023-04-24T04:54:53;12.30;99.90
7738;DHT22;29398;45.328;5.558;2023-04-24T04:55:58;12.30;99.90
7738;DHT22;29398;45.328;5.558;2023-04-24T04:57:06;12.40;99.90
7738;DHT22;29398;45.328;5.558;2023-04-24T04:58:10;12.40;99.90
7738;DHT22;29398;45.328;5.558;2023-04-24T04:59:11;12.40;99.90
7738;DHT22;29398;45.328;5.558;2023-04-24T05:00:16;12.40;99.90
7738;DHT22;29398;45.328;5.558;2023-04-24T05:01:23;12.50;99.90
7738;DHT22;29398;45.328;5.558;2023-04-24T05:02:26;12.40;99.90
7738;DHT22;29398;45.328;5.558;2023-04-24T05:03:27;12.40;99.90
7738;DHT22;29398;45.328;5.558;2023-04-24T05:04:40;12.40;99.90
7738;DHT22;29398;45.328;5.558;2023-04-24T05:05:41;12.40;99.90
7738;DHT22;29398;45.328;5.558;2023-04-24T05:06:47;12.40;99.90
7738;DHT22;29398;45.328;5.558;2023-04-24T05:07:48;12.40;99.90
7738;DHT22;29398;45.328;5.558;2023-04-24T05:08:50;12.30;99.90
7738;DHT22;29398;45.328;5.558;2023-04-24T05:10:02;12.20;99.90
7738;DHT22;29398;45.328;5.558;2023-04-24T05:11:07;12.20;99.90
7738;DHT22;29398;45.328;5.558;2023-04-24T05:12:09;12.10;99.90
7738;DHT22;29398;45.328;5.558;2023-04-24T05:14:20;12.10;99.90
7738;DHT22;29398;45.328;5.558;2023-04-24T05:15:25;12.10;99.90
7738;DHT22;29398;45.328;5.558;2023-04-24T05:16:26;12.10;99.90
7738;DHT22;29398;45.328;5.558;2023-04-24T05:17:29;12.10;99.90
7738;DHT22;29398;45.328;5.558;2023-04-24T05:18:32;12.00;99.90
7738;DHT22;29398;45.328;5.558;2023-04-24T05:19:35;12.10;99.90
7738;DHT22;29398;45.328;5.558;2023-04-24T05:20:40;12.10;99.90
7738;DHT22;29398;45.328;5.558;2023-04-24T05:21:44;12.10;99.90
7738;DHT22;29398;45.328;5.558;2023-04-24T05:22:46;12.10;99.90
7738;DHT22;29398;45.328;5.558;2023-04-24T05:23:49;12.10;99.90
7738;DHT22;29398;45.328;5.558;2023-04-24T05:24:58;12.20;99.90
7738;DHT22;29398;45.328;5.558;2023-04-24T05:26:14;12.20;99.90
7738;DHT22;29398;45.328;5.558;2023-04-24T05:27:16;12.30;99.90
7738;DHT22;29398;45.328;5.558;2023-04-24T05:28:18;12.30;99.90
7738;DHT22;29398;45.328;5.558;2023-04-24T05:29:27;12.30;99.90
7738;DHT22;29398;45.328;5.558;2023-04-24T05:30:30;12.30;99.90
7738;DHT22;29398;45.328;5.558;2023-04-24T05:31:32;12.30;99.90
7738;DHT22;29398;45.328;5.558;2023-04-24T05:32:34;12.30;99.90
7738;DHT22;29398;45.328;5.558;2023-04-24T05:33:36;12.30;99.90
7738;DHT22;29398;45.328;5.558;2023-04-24T05:34:38;12.30;99.90
7738;DHT22;29398;45.328;5.558;2023-04-24T05:35:40;12.30;99.90
7738;DHT22;29398;45.328;5.558;2023-04-24T05:36:47;12.20;99.90
7738;DHT22;29398;45.328;5.558;2023-04-24T05:37:49;12.30;99.90
7738;DHT22;29398;45.328;5.558;2023-04-24T05:39:54;12.20;99.90
7738;DHT22;29398;45.328;5.558;2023-04-24T05:40:55;12.20;99.90
7738;DHT22;29398;45.328;5.558;2023-04-24T05:41:58;12.20;99.90
7738;DHT22;29398;45.328;5.558;2023-04-24T05:42:59;12.20;99.90
7738;DHT22;29398;45.328;5.558;2023-04-24T05:44:01;12.20;99.90
7738;DHT22;29398;45.328;5.558;2023-04-24T05:45:03;12.20;99.90
7738;DHT22;29398;45.328;5.558;2023-04-24T05:46:07;12.20;99.90
7738;DHT22;29398;45.328;5.558;2023-04-24T05:47:10;12.10;99.90
7738;DHT22;29398;45.328;5.558;2023-04-24T05:48:13;12.10;99.90
7738;DHT22;29398;45.328;5.558;2023-04-24T05:49:14;12.10;99.90
7738;DHT22;29398;45.328;5.558;2023-04-24T05:50:16;12.00;99.90
7738;DHT22;29398;45.328;5.558;2023-04-24T05:51:17;12.10;99.90
7738;DHT22;29398;45.328;5.558;2023-04-24T05:52:19;12.10;99.90
7738;DHT22;29398;45.328;5.558;2023-04-24T05:53:23;11.90;99.90
7738;DHT22;29398;45.328;5.558;2023-04-24T05:54:25;11.90;99.90
7738;DHT22;29398;45.328;5.558;2023-04-24T05:55:27;11.80;99.90
7738;DHT22;29398;45.328;5.558;2023-04-24T05:56:29;11.80;99.90
7738;DHT22;29398;45.328;5.558;2023-04-24T05:57:31;11.80;99.90
7738;DHT22;29398;45.328;5.558;2023-04-24T05:58:37;11.70;99.90
7738;DHT22;29398;45.328;5.558;2023-04-24T05:59:40;11.70;99.90
7738;DHT22;29398;45.328;5.558;2023-04-24T06:00:42;11.70;99.90
7738;DHT22;29398;45.328;5.558;2023-04-24T06:01:46;11.70;99.90
7738;DHT22;29398;45.328;5.558;2023-04-24T06:02:52;11.70;99.90
7738;DHT22;29398;45.328;5.558;2023-04-24T06:03:55;11.70;99.90
7738;DHT22;29398;45.328;5.558;2023-04-24T06:04:56;11.70;99.90
7738;DHT22;29398;45.328;5.558;2023-04-24T06:05:59;11.70;99.90
7738;DHT22;29398;45.328;5.558;2023-04-24T06:07:00;11.70;99.90
7738;DHT22;29398;45.328;5.558;2023-04-24T06:08:04;11.80;99.90
7738;DHT22;29398;45.328;5.558;2023-04-24T06:09:13;11.80;99.90
7738;DHT22;29398;45.328;5.558;2023-04-24T06:10:15;11.80;99.90
7738;DHT22;29398;45.328;5.558;2023-04-24T06:11:18;11.80;99.90
7738;DHT22;29398;45.328;5.558;2023-04-24T06:12:20;11.80;99.90
7738;DHT22;29398;45.328;5.558;2023-04-24T06:13:31;11.90;99.90
7738;DHT22;29398;45.328;5.558;2023-04-24T06:14:51;11.80;99.90
7738;DHT22;29398;45.328;5.558;2023-04-24T06:16:01;11.80;99.90
7738;DHT22;29398;45.328;5.558;2023-04-24T06:17:09;11.80;99.90
7738;DHT22;29398;45.328;5.558;2023-04-24T06:18:14;11.80;99.90
7738;DHT22;29398;45.328;5.558;2023-04-24T06:19:16;11.80;99.90
7738;DHT22;29398;45.328;5.558;2023-04-24T06:20:18;11.80;99.90
7738;DHT22;29398;45.328;5.558;2023-04-24T06:21:20;11.90;99.90
7738;DHT22;29398;45.328;5.558;2023-04-24T06:22:22;11.90;99.90
7738;DHT22;29398;45.328;5.558;2023-04-24T06:23:23;11.90;99.90
7738;DHT22;29398;45.328;5.558;2023-04-24T06:24:27;12.00;99.90
7738;DHT22;29398;45.328;5.558;2023-04-24T06:25:29;12.00;99.90
7738;DHT22;29398;45.328;5.558;2023-04-24T06:26:31;12.10;99.90
7738;DHT22;29398;45.328;5.558;2023-04-24T06:27:34;12.10;99.90
7738;DHT22;29398;45.328;5.558;2023-04-24T06:28:36;12.00;99.90
7738;DHT22;29398;45.328;5.558;2023-04-24T06:29:38;12.00;99.90
7738;DHT22;29398;45.328;5.558;2023-04-24T06:30:39;11.90;99.90
7738;DHT22;29398;45.328;5.558;2023-04-24T06:31:41;11.90;99.90
7738;DHT22;29398;45.328;5.558;2023-04-24T06:32:44;11.90;99.90
7738;DHT22;29398;45.328;5.558;2023-04-24T06:33:46;11.90;99.90
7738;DHT22;29398;45.328;5.558;2023-04-24T06:34:47;11.80;99.90
7738;DHT22;29398;45.328;5.558;2023-04-24T06:35:49;11.70;99.90
7738;DHT22;29398;45.328;5.558;2023-04-24T06:36:50;11.80;99.90
7738;DHT22;29398;45.328;5.558;2023-04-24T06:37:52;11.70;99.90
7738;DHT22;29398;45.328;5.558;2023-04-24T06:38:54;11.80;99.90
7738;DHT22;29398;45.328;5.558;2023-04-24T06:39:56;11.80;99.90
7738;DHT22;29398;45.328;5.558;2023-04-24T06:40:57;11.90;99.90
7738;DHT22;29398;45.328;5.558;2023-04-24T06:41:59;11.90;99.90
7738;DHT22;29398;45.328;5.558;2023-04-24T06:43:01;11.80;99.90
7738;DHT22;29398;45.328;5.558;2023-04-24T06:44:03;11.80;99.90
7738;DHT22;29398;45.328;5.558;2023-04-24T06:45:05;11.80;99.90
7738;DHT22;29398;45.328;5.558;2023-04-24T06:46:07;11.90;99.90
7738;DHT22;29398;45.328;5.558;2023-04-24T06:47:10;12.00;99.90
7738;DHT22;29398;45.328;5.558;2023-04-24T06:48:14;12.00;99.90